Time;durP1;ratioP1;P1;durP2;ratioP2;P2;SDS_P1;SDS_P2;PMS_P1;PMS_P2;Temp;Humidity;BMP_temperature;BMP_pressure;BME280_temperature;BME280_humidity;BME280_pressure;Samples;Min_cycle;Max_cycle;Signal;HPM_P1;HPM_P2
2022/04/24 00:00:06;;;;;;;19.75;8.30;;;;;;;12.14;49.98;100097.72;5063251;28;20029;-66
2022/04/24 00:02:33;;;;;;;19.70;8.35;;;;;;;12.09;49.91;100094.28;5065890;28;20052;-66
2022/04/24 00:04:58;;;;;;;19.52;8.60;;;;;;;12.00;50.42;100094.41;5062643;28;20025;-65
2022/04/24 00:07:24;;;;;;;20.48;8.80;;;;;;;12.00;50.47;100094.41;5065722;28;20082;-65
2022/04/24 00:09:49;;;;;;;20.10;8.55;;;;;;;11.88;50.50;100091.88;5063375;28;20020;-64
2022/04/24 00:12:18;;;;;;;19.30;8.50;;;;;;;11.80;51.37;100090.22;5064085;28;20035;-64
2022/04/24 00:14:46;;;;;;;19.58;8.63;;;;;;;11.73;51.58;100085.88;5064384;28;20070;-64
2022/04/24 00:17:12;;;;;;;19.75;9.18;;;;;;;11.69;51.90;100084.16;5063782;28;20049;-64
2022/04/24 00:19:38;;;;;;;20.10;9.13;;;;;;;11.55;52.16;100084.34;5064676;28;20422;-64
2022/04/24 00:22:03;;;;;;;19.50;8.82;;;;;;;11.49;52.15;100076.47;5062691;28;20021;-64
2022/04/24 00:24:29;;;;;;;20.15;8.93;;;;;;;11.38;52.86;100070.44;5065912;28;20455;-64
2022/04/24 00:26:54;;;;;;;20.30;9.07;;;;;;;11.24;53.09;100065.28;5062200;28;20029;-64
2022/04/24 00:29:20;;;;;;;19.58;9.10;;;;;;;11.16;53.61;100065.38;5064845;28;20053;-64
2022/04/24 00:31:46;;;;;;;19.83;9.40;;;;;;;11.08;53.86;100061.91;5063322;28;20519;-65
2022/04/24 00:34:12;;;;;;;20.65;9.35;;;;;;;11.05;54.02;100067.25;5063636;28;20037;-64
2022/04/24 00:36:38;;;;;;;19.85;9.20;;;;;;;10.91;54.45;100062.09;5064849;28;20165;-64
2022/04/24 00:39:03;;;;;;;19.85;9.13;;;;;;;10.89;54.46;100069.16;5061994;28;20529;-65
2022/04/24 00:41:29;;;;;;;20.35;9.20;;;;;;;10.76;54.97;100071.91;5065652;28;20024;-64
2022/04/24 00:43:54;;;;;;;20.35;9.68;;;;;;;10.69;55.40;100069.31;5062012;28;20036;-66
2022/04/24 00:47:00;;;;;;;20.25;9.35;;;;;;;10.64;55.29;100067.63;5064312;28;20110;-65
2022/04/24 00:49:25;;;;;;;20.25;9.63;;;;;;;10.54;56.00;100067.69;5064922;28;20498;-63
2022/04/24 00:51:51;;;;;;;20.30;9.45;;;;;;;10.46;56.26;100065.13;5062316;28;20020;-65
2022/04/24 00:54:17;;;;;;;19.98;9.55;;;;;;;10.39;56.75;100066.03;5063597;28;20053;-64
2022/04/24 00:56:43;;;;;;;20.33;9.88;;;;;;;10.32;56.96;100064.28;5063362;28;20120;-66
2022/04/24 00:59:10;;;;;;;21.92;9.57;;;;;;;10.23;57.25;100063.47;5062312;28;20025;-66
2022/04/24 01:01:36;;;;;;;21.95;9.57;;;;;;;10.20;57.42;100065.25;5064451;28;20107;-66
2022/04/24 01:04:07;;;;;;;21.17;9.50;;;;;;;10.19;57.36;100063.50;5061275;28;20468;-67
2022/04/24 01:06:42;;;;;;;20.25;9.30;;;;;;;10.15;57.69;100064.41;5064472;28;20036;-66
2022/04/24 01:09:19;;;;;;;20.00;9.57;;;;;;;10.04;58.17;100065.34;5062299;28;20025;-63
2022/04/24 01:11:50;;;;;;;20.00;9.48;;;;;;;10.02;58.11;100064.50;5062978;28;20352;-63
2022/04/24 01:14:16;;;;;;;20.67;9.70;;;;;;;9.97;58.44;100054.84;5063246;28;20032;-64
2022/04/24 01:16:42;;;;;;;20.38;9.55;;;;;;;9.99;58.76;100063.63;5063051;28;20039;-64
2022/04/24 01:19:08;;;;;;;20.23;9.70;;;;;;;10.02;58.44;100061.84;5062145;28;20104;-64
2022/04/24 01:21:34;;;;;;;20.35;9.73;;;;;;;10.04;58.48;100061.84;5064430;28;20116;-64
2022/04/24 01:24:00;;;;;;;20.38;10.18;;;;;;;9.92;58.73;100068.94;5060913;28;20449;-64
2022/04/24 01:26:25;;;;;;;20.90;10.10;;;;;;;9.87;58.83;100068.09;5063807;28;20042;-64
2022/04/24 01:28:51;;;;;;;22.40;10.07;;;;;;;9.88;59.08;100067.19;5062002;28;20017;-64
2022/04/24 01:31:16;;;;;;;20.85;9.82;;;;;;;9.92;59.08;100068.94;5063070;28;20017;-64
2022/04/24 01:33:42;;;;;;;20.65;9.98;;;;;;;9.88;59.54;100071.59;5063362;28;20459;-64
2022/04/24 01:36:07;;;;;;;20.42;10.00;;;;;;;9.84;59.87;100073.38;5061597;28;20051;-64
2022/04/24 01:38:33;;;;;;;20.90;10.18;;;;;;;9.81;59.50;100065.47;5064434;28;20078;-63
2022/04/24 01:40:58;;;;;;;20.05;9.70;;;;;;;9.83;59.73;100073.38;5061121;28;20036;-64
2022/04/24 01:43:24;;;;;;;20.38;10.10;;;;;;;9.88;59.52;100071.59;5063763;28;20020;-64
2022/04/24 01:45:49;;;;;;;20.65;10.20;;;;;;;9.91;59.43;100071.59;5061714;28;20033;-64
2022/04/24 01:48:14;;;;;;;20.30;9.82;;;;;;;9.89;59.60;100068.09;5062519;28;20021;-64
2022/04/24 01:50:40;;;;;;;19.90;9.80;;;;;;;9.88;59.49;100067.19;5063084;28;20031;-65
2022/04/24 01:53:05;;;;;;;20.00;9.80;;;;;;;9.85;59.69;100066.34;5061130;28;20025;-66
2022/04/24 01:55:31;;;;;;;19.98;10.07;;;;;;;9.85;59.81;100071.63;5064062;28;20048;-65
2022/04/24 01:57:56;;;;;;;20.40;10.57;;;;;;;9.80;59.68;100065.47;5060854;28;20036;-65
2022/04/24 02:00:21;;;;;;;20.20;10.20;;;;;;;9.76;59.54;100067.25;5063603;28;20570;-65
2022/04/24 02:02:47;;;;;;;21.48;10.00;;;;;;;9.66;60.71;100065.56;5062527;28;20033;-65
2022/04/24 02:05:13;;;;;;;19.83;9.50;;;;;;;9.64;60.49;100068.19;5062298;28;20374;-66
2022/04/24 02:07:39;;;;;;;20.52;10.18;;;;;;;9.61;60.44;100068.22;5063318;28;20034;-65
2022/04/24 02:10:05;;;;;;;19.83;9.57;;;;;;;9.58;60.72;100066.47;5060836;28;20060;-64
2022/04/24 02:12:30;;;;;;;20.80;9.75;;;;;;;9.54;61.28;100072.63;5063954;28;20028;-65
2022/04/24 02:14:56;;;;;;;20.33;10.05;;;;;;;9.46;61.20;100073.53;5061191;28;20079;-65
2022/04/24 02:17:21;;;;;;;20.70;10.43;;;;;;;9.41;61.54;100066.50;5063416;28;20464;-65
2022/04/24 02:19:46;;;;;;;21.30;10.20;;;;;;;9.45;61.57;100066.50;5062056;28;20025;-65
2022/04/24 02:22:12;;;;;;;20.30;10.23;;;;;;;9.39;61.86;100068.28;5062244;28;20017;-65
2022/04/24 02:24:37;;;;;;;20.35;10.40;;;;;;;9.42;61.97;100073.56;5063241;28;20024;-65
2022/04/24 02:27:03;;;;;;;21.70;10.60;;;;;;;9.45;61.59;100062.13;5060242;28;20036;-65
2022/04/24 02:29:29;;;;;;;21.25;10.80;;;;;;;9.45;61.11;100072.66;5063976;28;20032;-65
2022/04/24 02:31:54;;;;;;;20.92;10.90;;;;;;;9.52;61.36;100062.97;5061094;28;20035;-67
2022/04/24 02:34:19;;;;;;;21.58;11.00;;;;;;;9.51;61.10;100064.72;5062743;28;20028;-66
2022/04/24 02:36:45;;;;;;;21.00;10.75;;;;;;;9.51;61.48;100069.09;5062826;28;20463;-66
2022/04/24 02:39:10;;;;;;;21.73;10.65;;;;;;;9.51;61.54;100066.47;5065136;28;20360;-67
2022/04/24 02:41:35;;;;;;;21.73;11.05;;;;;;;9.57;61.29;100071.75;5067061;28;20035;-66
2022/04/24 02:44:01;;;;;;;20.92;11.13;;;;;;;9.60;61.11;100071.72;5064481;28;20029;-66
2022/04/24 02:46:26;;;;;;;21.00;11.20;;;;;;;9.61;61.43;100070.84;5067179;28;20038;-64
2022/04/24 02:48:51;;;;;;;21.88;11.82;;;;;;;9.60;61.41;100071.72;5065034;28;20020;-66
2022/04/24 02:51:17;;;;;;;21.17;11.50;;;;;;;9.67;61.10;100070.81;5065715;28;20419;-65
2022/04/24 02:53:43;;;;;;;22.35;12.05;;;;;;;9.66;61.53;100074.34;5066139;28;20064;-65
2022/04/24 02:56:08;;;;;;;21.38;11.80;;;;;;;9.69;61.21;100073.44;5064452;28;20037;-64
2022/04/24 02:58:33;;;;;;;21.52;11.70;;;;;;;9.70;61.07;100075.22;5067150;28;20157;-63
2022/04/24 03:00:59;;;;;;;21.60;11.60;;;;;;;9.70;61.20;100077.84;5063779;28;20017;-64
2022/04/24 03:03:25;;;;;;;22.55;12.40;;;;;;;9.68;61.54;100076.97;5065738;28;20021;-64
2022/04/24 03:05:50;;;;;;;23.90;12.77;;;;;;;9.74;60.98;100077.84;5064338;28;20379;-64
2022/04/24 03:08:17;;;;;;;21.40;11.80;;;;;;;9.74;61.19;100077.84;5065458;28;20033;-64
2022/04/24 03:10:42;;;;;;;22.27;12.15;;;;;;;9.77;60.76;100080.44;5065862;28;20028;-66
2022/04/24 03:13:08;;;;;;;22.00;12.05;;;;;;;9.70;61.09;100081.38;5064362;28;20020;-66
2022/04/24 03:15:34;;;;;;;23.08;12.52;;;;;;;9.60;61.01;100083.16;5066690;28;20020;-66
2022/04/24 03:18:00;;;;;;;22.17;12.32;;;;;;;9.50;61.70;100086.72;5063913;28;20036;-66
2022/04/24 03:20:25;;;;;;;22.90;13.02;;;;;;;9.40;62.13;100077.06;5064909;28;20025;-66
2022/04/24 03:22:51;;;;;;;22.45;12.27;;;;;;;9.36;62.44;100084.13;5064275;28;20445;-66
2022/04/24 03:25:16;;;;;;;22.23;12.80;;;;;;;9.19;63.12;100070.97;5065443;28;20036;-66
2022/04/24 03:27:42;;;;;;;23.10;13.25;;;;;;;9.15;63.22;100073.63;5065291;28;20467;-64
2022/04/24 03:30:09;;;;;;;23.27;12.77;;;;;;;9.13;63.67;100080.66;5064170;28;20025;-66
2022/04/24 03:32:36;;;;;;;22.80;12.93;;;;;;;8.96;64.89;100080.69;5066352;28;20024;-66
2022/04/24 03:35:04;;;;;;;22.83;13.52;;;;;;;8.89;65.65;100082.44;5063089;28;20467;-66
2022/04/24 03:37:30;;;;;;;22.80;13.32;;;;;;;8.80;66.50;100082.47;5063135;28;20460;-66
2022/04/24 03:39:56;;;;;;;23.63;13.43;;;;;;;8.70;67.35;100081.56;5066396;28;20111;-66
2022/04/24 03:42:21;;;;;;;24.42;13.95;;;;;;;8.66;67.43;100088.59;5063864;28;20036;-66
2022/04/24 03:44:47;;;;;;;23.30;13.80;;;;;;;8.53;69.49;100089.47;5064949;28;20040;-67
2022/04/24 03:47:14;;;;;;;22.73;13.68;;;;;;;8.44;71.00;100082.44;5064714;28;20040;-66
2022/04/24 03:49:40;;;;;;;24.05;13.95;;;;;;;8.38;71.63;100080.63;5063344;28;20035;-66
2022/04/24 03:52:05;;;;;;;23.00;13.18;;;;;;;8.31;72.69;100085.91;5066034;28;20099;-66
2022/04/24 03:54:31;;;;;;;23.58;13.75;;;;;;;8.24;74.98;100084.13;5062974;28;20029;-63
2022/04/24 03:56:57;;;;;;;22.92;13.75;;;;;;;8.27;74.45;100081.50;5064441;28;20056;-66
2022/04/24 03:59:22;;;;;;;23.92;14.10;;;;;;;8.16;77.10;100084.13;5064050;28;20115;-66
2022/04/24 04:01:47;;;;;;;23.70;14.40;;;;;;;8.11;77.46;100086.75;5064526;28;20112;-66
2022/04/24 04:04:13;;;;;;;24.05;14.32;;;;;;;8.05;78.83;100085.84;5064692;28;20056;-66
2022/04/24 04:06:38;;;;;;;23.25;13.70;;;;;;;8.01;79.45;100087.59;5063138;28;20025;-66
2022/04/24 04:09:04;;;;;;;23.70;13.98;;;;;;;8.05;79.95;100083.22;5065992;28;20025;-67
2022/04/24 04:11:29;;;;;;;23.00;14.07;;;;;;;7.99;81.30;100084.97;5062710;28;20109;-66
2022/04/24 04:13:55;;;;;;;23.80;14.55;;;;;;;7.95;82.61;100084.94;5065692;28;20044;-66
2022/04/24 04:16:20;;;;;;;24.00;14.32;;;;;;;7.86;83.91;100080.53;5063702;28;20042;-67
2022/04/24 04:18:45;;;;;;;24.08;14.57;;;;;;;7.80;85.11;100086.63;5063924;28;20025;-66
2022/04/24 04:21:11;;;;;;;23.60;14.30;;;;;;;7.74;87.15;100086.63;5065057;28;20017;-66
2022/04/24 04:23:36;;;;;;;24.83;14.68;;;;;;;7.78;86.86;100087.53;5062296;28;20021;-66
2022/04/24 04:26:01;;;;;;;25.38;14.80;;;;;;;7.70;89.04;100097.13;5065841;28;20032;-67
2022/04/24 04:28:26;;;;;;;24.10;14.45;;;;;;;7.71;89.33;100096.28;5062644;28;20025;-66
2022/04/24 04:30:52;;;;;;;24.02;14.63;;;;;;;7.67;90.77;100093.63;5064474;28;20352;-65
2022/04/24 04:33:18;;;;;;;24.00;14.05;;;;;;;7.65;91.56;100099.75;5063607;28;20025;-65
2022/04/24 04:35:43;;;;;;;24.52;14.57;;;;;;;7.63;92.13;100099.75;5063120;28;20032;-65
2022/04/24 04:38:08;;;;;;;24.67;14.23;;;;;;;7.64;92.61;100109.38;5064576;28;20028;-65
2022/04/24 04:40:34;;;;;;;24.05;14.32;;;;;;;7.63;93.21;100107.63;5062030;28;20067;-65
2022/04/24 04:42:59;;;;;;;23.80;14.05;;;;;;;7.64;92.95;100105.88;5062129;28;20110;-65
2022/04/24 04:45:25;;;;;;;23.40;13.77;;;;;;;7.63;93.67;100104.09;5064360;28;20028;-64
2022/04/24 04:47:51;;;;;;;23.77;13.80;;;;;;;7.71;93.37;100112.06;5063195;28;20036;-65
2022/04/24 04:50:16;;;;;;;23.67;13.95;;;;;;;7.67;94.11;100112.03;5063200;28;20106;-65
2022/04/24 04:52:42;;;;;;;24.92;14.80;;;;;;;7.70;94.30;100118.19;5064009;28;20048;-65
2022/04/24 04:55:07;;;;;;;23.75;14.07;;;;;;;7.71;94.74;100109.44;5061834;28;20102;-65
2022/04/24 04:57:32;;;;;;;24.67;14.73;;;;;;;7.65;96.04;100113.78;5065200;28;20105;-65
2022/04/24 04:59:58;;;;;;;24.70;14.90;;;;;;;7.65;95.49;100115.53;5061048;28;20483;-65
2022/04/24 05:02:23;;;;;;;23.75;13.95;;;;;;;7.72;95.58;100114.69;5064339;28;20029;-65
2022/04/24 05:04:48;;;;;;;23.88;13.85;;;;;;;7.75;95.31;100116.47;5062857;28;20032;-65
2022/04/24 05:07:14;;;;;;;23.60;14.07;;;;;;;7.75;95.44;100119.09;5062795;28;20037;-64
2022/04/24 05:09:40;;;;;;;24.25;13.95;;;;;;;7.79;95.56;100123.47;5064294;28;20387;-64
2022/04/24 05:12:07;;;;;;;22.95;13.35;;;;;;;7.78;96.11;100127.00;5061415;28;20032;-65
2022/04/24 05:14:33;;;;;;;23.88;13.73;;;;;;;7.81;95.72;100130.50;5064823;28;20463;-65
2022/04/24 05:16:58;;;;;;;23.08;13.50;;;;;;;7.87;95.53;100134.91;5061389;28;20036;-65
2022/04/24 05:19:25;;;;;;;23.17;13.23;;;;;;;7.88;94.71;100135.78;5062708;28;20067;-64
2022/04/24 05:21:51;;;;;;;24.77;13.25;;;;;;;7.93;93.93;100137.56;5063028;28;20028;-65
2022/04/24 05:24:16;;;;;;;24.38;13.50;;;;;;;8.00;93.61;100146.38;5062857;28;20056;-65
2022/04/24 05:26:42;;;;;;;22.90;13.25;;;;;;;8.02;94.65;100145.53;5063360;28;20064;-66
2022/04/24 05:29:07;;;;;;;24.83;13.30;;;;;;;8.00;94.62;100147.25;5061900;28;20056;-66
2022/04/24 05:31:33;;;;;;;22.80;12.60;;;;;;;8.05;94.18;100144.63;5064948;28;20032;-65
2022/04/24 05:33:58;;;;;;;23.83;13.30;;;;;;;8.09;94.26;100145.53;5061199;28;20053;-65
2022/04/24 05:36:24;;;;;;;22.67;13.18;;;;;;;8.12;93.22;100151.66;5064014;28;20091;-64
2022/04/24 05:38:49;;;;;;;25.63;13.30;;;;;;;8.16;93.11;100157.84;5062822;28;20028;-64
2022/04/24 05:41:15;;;;;;;23.50;12.85;;;;;;;8.21;92.56;100150.81;5062189;28;20074;-63
2022/04/24 05:43:40;;;;;;;24.23;13.20;;;;;;;8.24;92.19;100155.22;5064070;28;20025;-65
2022/04/24 05:46:06;;;;;;;23.30;12.50;;;;;;;8.30;91.03;100161.41;5061025;28;20356;-64
2022/04/24 05:48:31;;;;;;;23.65;12.63;;;;;;;8.36;89.17;100160.53;5064554;28;20025;-65
2022/04/24 05:50:57;;;;;;;23.02;12.93;;;;;;;8.41;89.91;100164.03;5061271;28;20028;-63
2022/04/24 05:53:23;;;;;;;22.95;12.80;;;;;;;8.45;91.01;100160.59;5063185;28;20059;-64
2022/04/24 05:55:48;;;;;;;23.63;12.43;;;;;;;8.48;89.97;100159.72;5062200;28;20075;-64
2022/04/24 05:58:14;;;;;;;22.98;12.73;;;;;;;8.53;87.72;100161.50;5061683;28;20025;-63
2022/04/24 06:00:39;;;;;;;21.92;11.95;;;;;;;8.60;86.29;100166.75;5063487;28;20177;-65
2022/04/24 06:03:04;;;;;;;22.88;12.43;;;;;;;8.65;87.06;100170.25;5060834;28;20499;-64
2022/04/24 06:05:30;;;;;;;23.48;12.35;;;;;;;8.70;87.13;100172.03;5064349;28;20028;-64
2022/04/24 06:07:56;;;;;;;22.58;12.00;;;;;;;8.73;85.58;100171.16;5060934;28;20483;-64
2022/04/24 06:10:21;;;;;;;22.60;12.10;;;;;;;8.80;83.43;100172.06;5062937;28;20021;-64
2022/04/24 06:12:48;;;;;;;23.00;12.20;;;;;;;8.82;85.17;100172.94;5066492;28;20356;-63
2022/04/24 06:15:19;;;;;;;23.08;11.75;;;;;;;8.88;84.44;100184.38;5065678;28;20031;-64
2022/04/24 06:17:47;;;;;;;22.55;11.70;;;;;;;8.92;83.24;100177.34;5067168;28;20056;-63
2022/04/24 06:20:13;;;;;;;24.48;12.30;;;;;;;8.93;82.53;100181.72;5065510;28;20107;-63
2022/04/24 06:22:42;;;;;;;22.10;11.95;;;;;;;8.99;83.19;100186.13;5067818;28;20452;-63
2022/04/24 06:25:08;;;;;;;22.67;11.82;;;;;;;9.03;81.11;100186.13;5064928;28;20396;-63
2022/04/24 06:27:33;;;;;;;22.30;11.95;;;;;;;9.08;81.70;100168.53;5067966;28;20029;-63
2022/04/24 06:29:59;;;;;;;22.67;12.13;;;;;;;9.16;81.29;100180.84;5064781;28;20020;-63
2022/04/24 06:32:28;;;;;;;22.58;11.65;;;;;;;9.23;78.64;100178.22;5067361;28;20033;-63
2022/04/24 06:34:54;;;;;;;23.02;12.15;;;;;;;9.27;77.70;100178.22;5065075;28;20471;-63
2022/04/24 06:37:19;;;;;;;21.35;11.88;;;;;;;9.30;77.54;100181.72;5066049;28;20072;-63
2022/04/24 06:39:44;;;;;;;21.88;11.88;;;;;;;9.34;78.22;100178.19;5066490;28;20020;-64
2022/04/24 06:42:10;;;;;;;23.75;11.90;;;;;;;9.40;77.87;100188.72;5064602;28;20467;-64
2022/04/24 06:44:35;;;;;;;23.13;11.85;;;;;;;9.46;76.31;100185.22;5067436;28;20017;-64
2022/04/24 06:47:01;;;;;;;22.70;11.75;;;;;;;9.57;76.63;100187.84;5064430;28;20033;-63
2022/04/24 06:49:26;;;;;;;23.33;12.00;;;;;;;9.62;75.19;100191.34;5066611;28;20024;-63
2022/04/24 06:51:51;;;;;;;21.73;11.68;;;;;;;9.71;73.34;100191.34;5065387;28;20024;-64
2022/04/24 06:54:17;;;;;;;22.13;11.55;;;;;;;9.75;73.88;100193.06;5065552;28;20112;-64
2022/04/24 06:56:42;;;;;;;23.02;12.00;;;;;;;9.81;72.54;100196.59;5066157;28;20048;-63
2022/04/24 06:59:07;;;;;;;23.48;11.45;;;;;;;9.90;73.09;100199.19;5064163;28;20021;-64
2022/04/24 07:01:33;;;;;;;21.67;11.48;;;;;;;9.98;72.16;100189.50;5067472;28;20111;-64
2022/04/24 07:03:58;;;;;;;21.65;11.68;;;;;;;10.08;69.82;100190.34;5063969;28;20096;-65
2022/04/24 07:06:23;;;;;;;21.40;11.38;;;;;;;10.16;71.38;100187.66;5066138;28;20036;-66
2022/04/24 07:08:49;;;;;;;23.45;12.18;;;;;;;10.25;69.84;100187.59;5065465;28;20024;-64
2022/04/24 07:11:14;;;;;;;22.40;12.38;;;;;;;10.30;69.03;100185.81;5064590;28;20032;-64
2022/04/24 07:13:40;;;;;;;22.58;11.90;;;;;;;10.36;68.52;100184.97;5066420;28;20093;-65
2022/04/24 07:16:06;;;;;;;22.65;12.20;;;;;;;10.45;66.10;100183.13;5063725;28;20068;-65
2022/04/24 07:18:31;;;;;;;23.70;12.43;;;;;;;10.47;66.31;100188.44;5067013;28;20032;-66
2022/04/24 07:20:58;;;;;;;22.90;12.50;;;;;;;10.52;66.91;100191.91;5063982;28;20032;-64
2022/04/24 07:23:23;;;;;;;22.45;11.88;;;;;;;10.64;67.45;100190.94;5064907;28;20021;-65
2022/04/24 07:25:49;;;;;;;22.52;12.25;;;;;;;10.67;65.22;100196.22;5064747;28;20108;-64
2022/04/24 07:28:16;;;;;;;23.75;11.95;;;;;;;10.81;65.71;100194.34;5064587;28;20025;-64
2022/04/24 07:30:42;;;;;;;22.50;12.15;;;;;;;10.88;65.10;100200.50;5066169;28;20074;-65
2022/04/24 07:33:07;;;;;;;23.00;11.68;;;;;;;10.95;62.50;100190.72;5063468;28;20112;-63
2022/04/24 07:35:37;;;;;;;23.25;12.00;;;;;;;11.04;63.40;100206.53;5066731;28;20060;-64
2022/04/24 07:38:04;;;;;;;22.98;12.02;;;;;;;11.07;61.72;100200.38;5063062;28;20029;-64
2022/04/24 07:40:31;;;;;;;24.17;12.35;;;;;;;11.11;61.31;100207.34;5066220;28;20450;-64
2022/04/24 07:43:02;;;;;;;23.33;11.95;;;;;;;11.21;61.14;100213.47;5063664;28;20033;-64
2022/04/24 07:45:33;;;;;;;22.42;12.05;;;;;;;11.34;62.67;100205.41;5065797;28;20031;-64
2022/04/24 07:48:00;;;;;;;22.42;11.85;;;;;;;11.40;61.52;100209.78;5063215;28;20032;-66
2022/04/24 07:50:28;;;;;;;22.45;12.00;;;;;;;11.48;60.72;100212.34;5065788;28;20033;-65
2022/04/24 07:52:54;;;;;;;22.23;12.15;;;;;;;11.61;62.12;100208.69;5064155;28;20029;-66
2022/04/24 07:55:22;;;;;;;22.48;12.13;;;;;;;11.72;59.82;100210.34;5064408;28;20041;-64
2022/04/24 07:57:48;;;;;;;22.25;12.23;;;;;;;11.82;60.77;100204.06;5064591;28;20028;-64
2022/04/24 08:00:16;;;;;;;21.77;11.82;;;;;;;11.85;58.67;100206.66;5063819;28;20021;-64
2022/04/24 08:02:57;;;;;;;22.70;12.05;;;;;;;11.94;58.83;100206.63;5065422;28;20112;-64
2022/04/24 08:05:26;;;;;;;22.13;12.43;;;;;;;11.99;58.49;100206.56;5064757;28;20111;-64
2022/04/24 08:07:52;;;;;;;22.00;11.60;;;;;;;12.18;57.70;100200.13;5063972;28;20032;-64
2022/04/24 08:10:19;;;;;;;22.48;12.27;;;;;;;12.81;55.79;100224.03;5063903;28;20029;-64
2022/04/24 08:12:46;;;;;;;21.95;11.55;;;;;;;13.49;52.82;100217.69;5064829;28;20082;-64
2022/04/24 08:15:11;;;;;;;22.92;12.07;;;;;;;13.95;51.17;100211.53;5063359;28;20025;-64
2022/04/24 08:17:37;;;;;;;21.92;11.93;;;;;;;14.34;50.64;100213.38;5065846;28;20099;-64
2022/04/24 08:20:04;;;;;;;21.55;11.50;;;;;;;14.71;48.42;100216.16;5062367;28;20442;-65
2022/04/24 08:22:37;;;;;;;21.88;11.38;;;;;;;15.10;47.89;100215.25;5065745;28;20425;-65
2022/04/24 08:25:03;;;;;;;21.92;11.48;;;;;;;15.39;45.34;100213.66;5062273;28;20027;-65
2022/04/24 08:27:28;;;;;;;21.73;11.55;;;;;;;15.41;45.27;100225.16;5064921;28;20111;-64
2022/04/24 08:29:53;;;;;;;21.60;11.40;;;;;;;15.64;45.23;100228.09;5063471;28;20031;-64
2022/04/24 08:32:21;;;;;;;21.50;11.63;;;;;;;15.95;45.02;100219.28;5063546;28;20025;-64
2022/04/24 08:34:46;;;;;;;21.90;11.48;;;;;;;16.11;43.26;100218.88;5064051;28;20024;-64
2022/04/24 08:37:12;;;;;;;22.52;11.65;;;;;;;16.28;43.01;100221.03;5062776;28;20102;-64
2022/04/24 08:39:37;;;;;;;23.75;11.18;;;;;;;16.60;42.05;100216.53;5065350;28;20405;-64
2022/04/24 08:42:05;;;;;;;21.70;11.40;;;;;;;16.98;41.46;100233.19;5061815;28;20029;-64
2022/04/24 08:44:33;;;;;;;22.25;11.43;;;;;;;17.23;41.06;100236.81;5065334;28;20028;-64
2022/04/24 08:46:58;;;;;;;21.63;11.57;;;;;;;17.36;40.21;100229.28;5062172;28;20048;-64
2022/04/24 08:49:25;;;;;;;22.98;11.85;;;;;;;17.65;39.94;100222.06;5062507;28;20029;-64
2022/04/24 08:51:51;;;;;;;21.67;11.55;;;;;;;17.61;40.45;100223.09;5063426;28;20404;-64
2022/04/24 08:54:17;;;;;;;21.67;12.05;;;;;;;17.68;39.57;100227.28;5062713;28;20054;-64
2022/04/24 08:56:42;;;;;;;22.75;12.00;;;;;;;18.09;39.05;100224.09;5063899;28;20052;-64
2022/04/24 08:59:07;;;;;;;22.30;11.52;;;;;;;18.62;38.17;100223.88;5061741;28;20028;-64
2022/04/24 09:01:43;;;;;;;22.80;11.90;;;;;;;19.03;38.12;100228.53;5064875;28;20376;-65
2022/04/24 09:04:08;;;;;;;22.48;12.07;;;;;;;19.13;36.16;100235.28;5061717;28;20029;-65
2022/04/24 09:06:34;;;;;;;22.80;11.55;;;;;;;19.19;35.96;100227.94;5064954;28;20032;-64
2022/04/24 09:09:06;;;;;;;21.70;11.95;;;;;;;19.35;36.66;100234.38;5062083;28;20024;-65
2022/04/24 09:11:32;;;;;;;22.35;11.40;;;;;;;19.44;35.86;100233.13;5064562;28;20109;-65
2022/04/24 09:14:18;;;;;;;21.85;11.75;;;;;;;19.06;36.31;100233.81;5062017;28;20029;-65
2022/04/24 09:16:47;;;;;;;22.30;12.48;;;;;;;18.26;37.36;100234.16;5062238;28;20130;-64
2022/04/24 09:19:25;;;;;;;22.00;12.00;;;;;;;17.93;39.20;100226.47;5063972;28;20463;-66
2022/04/24 09:21:53;;;;;;;22.80;12.10;;;;;;;18.48;37.68;100234.25;5063049;28;20032;-66
2022/04/24 09:24:19;;;;;;;22.65;11.50;;;;;;;19.46;36.82;100237.50;5063013;28;20029;-67
2022/04/24 09:26:55;;;;;;;22.38;11.80;;;;;;;20.18;35.26;100233.53;5062367;28;20025;-67
2022/04/24 09:29:24;;;;;;;21.60;11.98;;;;;;;20.50;33.80;100233.84;5062740;28;20099;-67
2022/04/24 09:31:51;;;;;;;22.25;11.80;;;;;;;20.99;33.96;100238.72;5062559;28;20464;-66
2022/04/24 09:34:19;;;;;;;22.35;12.00;;;;;;;21.40;32.03;100243.00;5062991;28;20478;-66
2022/04/24 09:36:46;;;;;;;21.42;11.63;;;;;;;21.61;31.10;100234.81;5062164;28;20087;-66
2022/04/24 09:39:12;;;;;;;21.38;11.63;;;;;;;21.93;31.31;100234.03;5063994;28;20028;-65
2022/04/24 09:41:38;;;;;;;22.40;12.30;;;;;;;22.53;30.84;100232.66;5060825;28;20027;-66
2022/04/24 09:44:12;;;;;;;22.88;11.85;;;;;;;22.52;30.41;100230.91;5061250;28;20074;-66
2022/04/24 09:46:37;;;;;;;23.15;12.32;;;;;;;22.77;29.12;100226.84;5060891;28;20061;-67
2022/04/24 09:49:03;;;;;;;22.20;12.32;;;;;;;23.47;29.75;100238.13;5064079;28;20482;-66
2022/04/24 09:51:28;;;;;;;22.05;12.07;;;;;;;23.65;28.63;100232.59;5061572;28;20056;-67
2022/04/24 09:54:02;;;;;;;21.98;11.52;;;;;;;23.29;29.50;100223.00;5062942;28;20052;-67
2022/04/24 09:56:28;;;;;;;22.30;11.90;;;;;;;23.19;29.58;100230.75;5061146;28;20065;-67
2022/04/24 09:58:56;;;;;;;22.05;11.80;;;;;;;23.51;29.50;100230.69;5063189;28;20021;-66
2022/04/24 10:01:22;;;;;;;22.83;11.70;;;;;;;24.00;28.11;100230.47;5062398;28;20104;-67
2022/04/24 10:03:49;;;;;;;21.02;10.90;;;;;;;23.91;27.42;100231.03;5061887;28;20108;-66
2022/04/24 10:06:15;;;;;;;22.88;12.13;;;;;;;24.34;27.81;100239.16;5063320;28;20104;-65
2022/04/24 10:08:41;;;;;;;23.35;12.77;;;;;;;24.36;27.59;100242.66;5061288;28;20036;-64
2022/04/24 10:11:07;;;;;;;21.17;11.85;;;;;;;24.36;26.54;100236.34;5064080;28;20025;-65
2022/04/24 10:13:39;;;;;;;21.38;11.82;;;;;;;24.70;26.62;100239.66;5060615;28;20052;-65
2022/04/24 10:16:19;;;;;;;22.48;12.40;;;;;;;24.81;26.44;100236.25;5060763;28;20052;-65
2022/04/24 10:19:32;;;;;;;25.95;12.48;;;;;;;25.47;26.97;100234.63;5061801;28;20119;-65
2022/04/24 10:22:06;;;;;;;22.45;12.52;;;;;;;25.32;26.12;100235.66;5063257;28;20036;-65
2022/04/24 10:24:45;;;;;;;21.65;11.23;;;;;;;26.01;26.06;100244.50;5060720;28;20029;-65
2022/04/24 10:27:12;;;;;;;21.83;11.98;;;;;;;26.26;25.43;100232.78;5060821;28;20032;-65
2022/04/24 10:29:59;;;;;;;21.23;11.77;;;;;;;26.53;24.55;100229.09;5064012;28;20115;-65
2022/04/24 10:32:26;;;;;;;22.40;11.85;;;;;;;26.26;24.47;100242.78;5062512;28;20063;-65
2022/04/24 10:34:51;;;;;;;21.90;10.82;;;;;;;26.92;24.24;100240.72;5061915;28;20028;-65
2022/04/24 10:37:28;;;;;;;21.35;10.50;;;;;;;27.29;23.70;100234.38;5061603;28;20027;-65
2022/04/24 10:39:56;;;;;;;21.80;10.80;;;;;;;27.38;23.26;100238.28;5061716;28;20070;-65
2022/04/24 10:42:29;;;;;;;20.88;11.35;;;;;;;27.60;22.78;100242.97;5062300;28;20067;-65
2022/04/24 10:44:55;;;;;;;20.63;10.63;;;;;;;27.71;22.69;100232.13;5061363;28;20024;-65
2022/04/24 10:47:20;;;;;;;20.77;9.60;;;;;;;28.34;22.17;100235.38;5061979;28;20033;-65
2022/04/24 10:49:46;;;;;;;19.90;10.35;;;;;;;27.76;23.08;100250.78;5062809;28;20028;-65
2022/04/24 10:52:11;;;;;;;20.15;9.98;;;;;;;27.97;22.11;100245.53;5060426;28;20025;-67
2022/04/24 10:54:39;;;;;;;21.60;9.90;;;;;;;27.91;21.35;100246.00;5064077;28;20073;-67
2022/04/24 10:57:21;;;;;;;20.50;9.70;;;;;;;28.09;22.27;100235.56;5060075;28;20045;-67
2022/04/24 10:59:48;;;;;;;20.10;9.70;;;;;;;28.08;22.07;100234.72;5064989;28;20029;-66
2022/04/24 11:02:19;;;;;;;20.92;9.30;;;;;;;28.41;21.00;100238.47;5066425;28;20395;-66
2022/04/24 11:04:44;;;;;;;19.90;9.77;;;;;;;28.55;21.06;100237.34;5065010;28;20027;-67
2022/04/24 11:07:20;;;;;;;21.50;9.27;;;;;;;28.75;21.42;100233.03;5066807;28;20441;-66
2022/04/24 11:09:45;;;;;;;20.65;9.43;;;;;;;29.18;21.55;100236.75;5064374;28;20033;-67
2022/04/24 11:12:11;;;;;;;21.10;9.10;;;;;;;29.18;21.47;100250.38;5066903;28;20081;-66